Bachir Chihani — 7TJA — position and weather

sailwx.info

Track history (hours):
 
Tides and Currents Weather Stations Pressure Air Temp Water Temp Dewpoint Dewpoint Depression Visibility Wind Speed Wind Dir Waves Ship Positions

Bachir Chihani

Last reported at 2016-Dec-03 14:27 UTC. Time now 2016-Dec-05 12:34 UTC.
Position N 37°57' E 024°37'.

Length 280 m; draft 11 m.

Type: Ship (hazmat cat D). MMSI: 605106010.

Date/timePositionNaut miles runAvg speedWind from/ knotsBaromVisibWave heightAir tempDewpointWater temp
2016-Dec-03 14:27N 37°57' E 024°37'1213.4
2016-Dec-03 13:33N 37°46' E 024°32'46612.1
2016-Dec-01 23:10N 36°23' E 014°57'813.5
2016-Dec-01 22:33N 36°25' E 014°47'1413.6
2016-Dec-01 21:33N 36°28' E 014°30'1413.8
2016-Dec-01 20:33N 36°30' E 014°13'1414.0
2016-Dec-01 19:31N 36°33' E 013°55'  
2016-Nov-24 19:33N 36°41' E 013°23'1413.1
2016-Nov-24 18:28N 36°38' E 013°40'1212.8
2016-Nov-24 17:33N 36°35' E 013°54'1313.1
2016-Nov-24 16:33N 36°33' E 014°10'1313.3
2016-Nov-24 15:34N 36°30' E 014°26'1313.2
2016-Nov-24 14:33N 36°27' E 014°42'  
Track history (hours):
 
Tides and Currents Weather Stations Pressure Air Temp Water Temp Dewpoint Dewpoint Depression Visibility Wind Speed Wind Dir Waves Ship Positions

Bachir Chihani

Last reported at 2016-Dec-03 14:27 UTC. Time now 2016-Dec-05 12:34 UTC.
Position N 37°57' E 024°37'.

Length 280 m; draft 11 m.

Type: Ship (hazmat cat D). MMSI: 605106010.

Date/timePositionNaut miles runAvg speedWind from/ knotsBaromVisibWave heightAir tempDewpointWater temp
2016-Dec-03 14:27N 37°57' E 024°37'1213.4
2016-Dec-03 13:33N 37°46' E 024°32'46612.1
2016-Dec-01 23:10N 36°23' E 014°57'813.5
2016-Dec-01 22:33N 36°25' E 014°47'1413.6
2016-Dec-01 21:33N 36°28' E 014°30'1413.8
2016-Dec-01 20:33N 36°30' E 014°13'1414.0
2016-Dec-01 19:31N 36°33' E 013°55'  
2016-Nov-24 19:33N 36°41' E 013°23'1413.1
2016-Nov-24 18:28N 36°38' E 013°40'1212.8
2016-Nov-24 17:33N 36°35' E 013°54'1313.1
2016-Nov-24 16:33N 36°33' E 014°10'1313.3
2016-Nov-24 15:34N 36°30' E 014°26'1313.2
2016-Nov-24 14:33N 36°27' E 014°42'  

Dump ship's entire track history